Terminal Aerodrome Forecast
Issued by NWS Mt. Holly, NJ

Current Version | Previous Version | Text Only | Print | Product List | Glossary On
Versions: 1 2 3 4 5 6 7 8 9 10 11 12 13 14 15 16
000
FTUS41 KPHI 252325
TAFACY
TAF
KACY 252325Z 2600/2624 18010G18KT P6SM SCT250
     FM260300 20008KT P6SM SCT250
     FM261300 20012G20KT P6SM FEW050=

USA.gov is the U.S. government's official web portal to all federal, state and local government web resources and services.